createdAt,value
2022-08-05T00:00:06.393Z,1000
2022-08-05T00:03:08.204Z,1000
2022-08-05T00:06:36.020Z,1000
2022-08-05T00:09:05.414Z,1001
2022-08-05T00:12:06.917Z,1001
2022-08-05T00:18:06.994Z,1001
2022-08-05T00:21:08.647Z,1001
2022-08-05T00:24:30.641Z,1001
2022-08-05T00:27:16.673Z,1001
2022-08-05T00:30:13.701Z,1001
2022-08-05T00:33:05.328Z,1001
2022-08-05T00:39:05.089Z,1001
2022-08-05T00:42:04.984Z,1001
2022-08-05T00:45:04.961Z,1001
2022-08-05T00:48:11.678Z,1001
2022-08-05T00:51:53.266Z,1001
2022-08-05T00:54:07.607Z,1001
2022-08-05T00:57:04.943Z,1001
2022-08-05T01:00:05.310Z,1001
2022-08-05T01:03:10.039Z,1001
2022-08-05T01:06:11.340Z,1001
2022-08-05T01:09:08.520Z,1001
2022-08-05T01:12:22.242Z,1001
2022-08-05T01:15:37.948Z,1001
2022-08-05T01:18:05.674Z,1001
2022-08-05T01:21:04.954Z,1001
2022-08-05T01:24:17.581Z,1001
2022-08-05T01:27:24.388Z,1001
2022-08-05T01:30:05.824Z,1001
2022-08-05T01:33:06.057Z,1001
2022-08-05T01:36:06.741Z,1001
2022-08-05T01:39:05.930Z,1001
2022-08-05T01:42:04.985Z,1001
2022-08-05T01:45:10.406Z,1001
2022-08-05T01:48:04.948Z,1001
2022-08-05T01:51:16.707Z,1001
2022-08-05T01:54:06.551Z,1001
2022-08-05T02:00:04.996Z,1001
2022-08-05T02:03:16.480Z,1001
2022-08-05T02:06:40.368Z,1001
2022-08-05T02:09:05.062Z,1001
2022-08-05T02:12:05.141Z,1001
2022-08-05T02:15:07.464Z,1001
2022-08-05T02:18:44.223Z,1001
2022-08-05T02:21:05.733Z,1001
2022-08-05T02:24:07.007Z,1001
2022-08-05T02:27:14.719Z,1001
2022-08-05T02:30:06.139Z,1001
2022-08-05T02:33:05.061Z,1002
2022-08-05T02:36:06.201Z,1002
2022-08-05T02:39:08.737Z,1002
2022-08-05T02:42:06.089Z,1002
2022-08-05T02:45:05.614Z,1002
2022-08-05T02:48:18.544Z,1002
2022-08-05T02:51:05.049Z,1002
2022-08-05T02:54:10.454Z,1002
2022-08-05T02:57:09.754Z,1002
2022-08-05T03:00:05.731Z,1002
2022-08-05T03:03:12.519Z,1002
2022-08-05T03:09:06.148Z,1002
2022-08-05T03:12:06.270Z,1002
2022-08-05T03:15:09.153Z,1001
2022-08-05T03:18:05.434Z,1001
2022-08-05T03:21:05.347Z,1001
2022-08-05T03:24:06.702Z,1001
2022-08-05T03:27:08.750Z,1001
2022-08-05T03:30:13.439Z,1002
2022-08-05T03:33:05.567Z,1002
2022-08-05T03:36:11.902Z,1002
2022-08-05T03:39:05.524Z,1002
2022-08-05T03:42:06.687Z,1002
2022-08-05T03:45:25.948Z,1002
2022-08-05T03:48:06.211Z,1002
2022-08-05T03:57:18.706Z,1001
2022-08-05T04:00:07.364Z,1002
2022-08-05T04:03:06.374Z,1002
2022-08-05T04:06:05.023Z,1002
2022-08-05T04:09:06.055Z,1002
2022-08-05T04:12:04.938Z,1002
2022-08-05T04:15:05.942Z,1002
2022-08-05T04:18:06.622Z,1001
2022-08-05T04:21:06.126Z,1001
2022-08-05T04:24:22.410Z,1001
2022-08-05T04:27:05.211Z,1001
2022-08-05T04:30:09.169Z,1001
2022-08-05T04:33:06.533Z,1001
2022-08-05T04:36:52.610Z,1001
2022-08-05T04:39:05.201Z,1001
2022-08-05T04:42:07.891Z,1000
2022-08-05T04:45:07.110Z,1000
2022-08-05T04:48:06.246Z,1000
2022-08-05T04:51:15.766Z,1000
2022-08-05T04:54:07.968Z,1000
2022-08-05T04:57:05.205Z,1000
2022-08-05T05:00:05.052Z,1000
2022-08-05T05:03:08.917Z,1000
2022-08-05T05:06:59.544Z,1000
2022-08-05T05:09:09.756Z,1000
2022-08-05T05:12:08.415Z,1000
2022-08-05T05:15:12.958Z,1001
2022-08-05T05:18:06.214Z,1001
2022-08-05T05:21:05.661Z,1001
2022-08-05T05:24:13.294Z,1001
2022-08-05T05:27:06.111Z,1001
2022-08-05T05:30:28.929Z,1001
2022-08-05T05:33:25.507Z,1001
2022-08-05T05:36:05.271Z,1001
2022-08-05T05:39:11.594Z,1001
2022-08-05T05:42:05.008Z,1001
2022-08-05T05:45:07.291Z,1001
2022-08-05T05:48:16.048Z,1001
2022-08-05T05:51:20.413Z,1001
2022-08-05T05:54:05.024Z,1001
2022-08-05T05:57:04.937Z,1001
2022-08-05T06:00:06.379Z,1001
2022-08-05T06:03:54.233Z,1002
2022-08-05T06:06:06.030Z,1002
2022-08-05T06:09:06.067Z,1002
2022-08-05T06:12:09.618Z,1002
2022-08-05T06:15:05.520Z,1002
2022-08-05T06:18:04.999Z,1002
2022-08-05T06:21:16.695Z,1002
2022-08-05T06:24:06.063Z,1002
2022-08-05T06:27:06.362Z,1002
2022-08-05T06:30:27.285Z,1002
2022-08-05T06:33:04.965Z,1002
2022-08-05T06:36:14.387Z,1002
2022-08-05T06:39:05.518Z,1002
2022-08-05T06:42:06.426Z,1002
2022-08-05T06:45:10.929Z,1002
2022-08-05T06:51:12.139Z,1002
2022-08-05T06:54:06.386Z,1002
2022-08-05T07:00:07.016Z,1002
2022-08-05T07:03:09.860Z,1002
2022-08-05T07:06:17.420Z,1002
2022-08-05T07:09:09.009Z,1003
2022-08-05T07:12:05.255Z,1003
2022-08-05T07:15:05.628Z,1003
2022-08-05T07:18:27.401Z,1003
2022-08-05T07:21:11.177Z,1003
2022-08-05T07:24:13.398Z,1003
2022-08-05T07:27:10.997Z,1003
2022-08-05T07:30:41.496Z,1002
2022-08-05T07:33:15.787Z,1002
2022-08-05T07:36:25.618Z,1002
2022-08-05T07:40:04.851Z,1002
2022-08-05T07:42:34.200Z,1002
2022-08-05T07:45:09.240Z,1002
2022-08-05T07:48:05.631Z,1002
2022-08-05T07:51:23.243Z,1001
2022-08-05T07:54:08.254Z,1001
2022-08-05T08:00:05.126Z,1001
2022-08-05T08:03:23.697Z,1001
2022-08-05T08:06:04.926Z,1002
2022-08-05T08:09:05.378Z,1002
2022-08-05T08:12:50.805Z,1002
2022-08-05T08:15:17.470Z,1001
2022-08-05T08:18:16.204Z,1001
2022-08-05T08:21:19.558Z,1001
2022-08-05T08:24:16.367Z,1001
2022-08-05T08:27:11.193Z,1001
2022-08-05T08:30:50.111Z,1001
2022-08-05T08:33:16.523Z,1001
2022-08-05T08:36:56.714Z,1001
2022-08-05T08:39:06.404Z,1001
2022-08-05T08:42:50.823Z,1001
2022-08-05T08:45:33.709Z,1001
2022-08-05T08:54:05.015Z,1001
2022-08-05T08:57:05.276Z,1001
2022-08-05T09:00:08.546Z,1002
2022-08-05T09:03:04.936Z,1002
2022-08-05T09:06:24.133Z,1002
2022-08-05T09:09:06.304Z,1002
2022-08-05T09:12:29.937Z,1002
2022-08-05T09:15:10.892Z,1002
2022-08-05T09:18:05.034Z,1002
2022-08-05T09:21:21.127Z,1002
2022-08-05T09:24:10.130Z,1002
2022-08-05T09:27:11.456Z,1002
2022-08-05T09:30:18.657Z,1002
2022-08-05T09:33:06.985Z,1002
2022-08-05T09:36:21.655Z,1002
2022-08-05T09:39:24.309Z,1002
2022-08-05T09:42:05.571Z,1002
2022-08-05T09:48:05.263Z,1002
2022-08-05T09:51:16.904Z,1002
2022-08-05T09:54:05.069Z,1002
2022-08-05T09:57:23.595Z,1002
2022-08-05T10:00:13.018Z,1002
2022-08-05T10:03:05.060Z,1002
2022-08-05T10:06:22.115Z,1002
2022-08-05T10:09:10.264Z,1002
2022-08-05T10:12:36.181Z,1002
2022-08-05T10:15:05.919Z,1002
2022-08-05T10:18:05.928Z,1002
2022-08-05T10:21:22.943Z,1002
2022-08-05T10:24:13.933Z,1002
2022-08-05T10:27:09.757Z,1002
2022-08-05T10:33:14.615Z,1002
2022-08-05T10:36:04.913Z,1002
2022-08-05T10:39:15.085Z,1002
2022-08-05T10:42:06.610Z,1002
2022-08-05T10:45:30.605Z,1002
2022-08-05T10:48:58.207Z,1002
2022-08-05T10:51:28.696Z,1002
2022-08-05T10:54:31.108Z,1003
2022-08-05T10:57:04.945Z,1003
2022-08-05T11:00:22.781Z,1003
2022-08-05T11:03:31.384Z,1003
2022-08-05T11:06:14.760Z,1003
2022-08-05T11:09:05.886Z,1002
2022-08-05T11:12:05.380Z,1002
2022-08-05T11:15:59.746Z,1002
2022-08-05T11:18:13.990Z,1002
2022-08-05T11:21:13.913Z,1002
2022-08-05T11:24:35.042Z,1002
2022-08-05T11:27:05.865Z,1002
2022-08-05T11:30:04.993Z,1002
2022-08-05T11:33:23.038Z,1002
2022-08-05T11:36:13.505Z,1002
2022-08-05T11:39:05.738Z,1002
2022-08-05T11:42:09.668Z,1003
2022-08-05T11:45:05.292Z,1003
2022-08-05T11:48:05.502Z,1003
2022-08-05T11:51:05.698Z,1003
2022-08-05T11:54:06.818Z,1003
2022-08-05T11:57:27.993Z,1004
2022-08-05T12:00:05.277Z,1003
2022-08-05T12:03:05.115Z,1003
2022-08-05T12:06:09.786Z,1003
2022-08-05T12:09:05.334Z,1003
2022-08-05T12:12:06.892Z,1003
2022-08-05T12:15:11.958Z,1003
2022-08-05T12:18:17.074Z,1003
2022-08-05T12:21:07.927Z,1003
2022-08-05T12:24:11.410Z,1003
2022-08-05T12:27:32.592Z,1003
2022-08-05T12:30:07.659Z,1003
2022-08-05T12:33:39.104Z,1004
2022-08-05T12:36:07.263Z,1004
2022-08-05T12:39:07.806Z,1004
2022-08-05T12:42:04.987Z,1004
2022-08-05T12:45:08.681Z,1004
2022-08-05T12:48:35.237Z,1004
2022-08-05T12:51:06.185Z,1004
2022-08-05T12:54:14.928Z,1005
2022-08-05T12:57:09.380Z,1005
2022-08-05T13:03:12.024Z,1005
2022-08-05T13:06:05.677Z,1004
2022-08-05T13:09:04.934Z,1004
2022-08-05T13:12:13.068Z,1004
2022-08-05T13:15:36.156Z,1004
2022-08-05T13:18:05.310Z,1004
2022-08-05T13:21:06.211Z,1005
2022-08-05T13:24:10.816Z,1005
2022-08-05T13:27:05.666Z,1005
2022-08-05T13:30:43.526Z,1005
2022-08-05T13:33:06.595Z,1005
2022-08-05T13:36:11.626Z,1005
2022-08-05T13:40:14.787Z,1005
2022-08-05T13:42:04.967Z,1005
2022-08-05T13:45:08.380Z,1005
2022-08-05T13:51:04.971Z,1005
2022-08-05T13:54:15.868Z,1005
2022-08-05T13:57:04.959Z,1005
2022-08-05T14:00:07.091Z,1005
2022-08-05T14:03:05.884Z,1005
2022-08-05T14:06:31.172Z,1005
2022-08-05T14:09:10.710Z,1005
2022-08-05T14:12:36.794Z,1005
2022-08-05T14:18:06.085Z,1005
2022-08-05T14:24:05.228Z,1005
2022-08-05T14:27:22.999Z,1005
2022-08-05T14:30:06.410Z,1005
2022-08-05T14:33:05.229Z,1005
2022-08-05T14:36:06.342Z,1005
2022-08-05T14:39:13.142Z,1005
2022-08-05T14:42:27.238Z,1005
2022-08-05T14:45:05.370Z,1005
2022-08-05T14:48:35.210Z,1005
2022-08-05T14:51:11.273Z,1005
2022-08-05T14:54:54.798Z,1006
2022-08-05T14:57:15.742Z,1006
2022-08-05T15:00:06.127Z,1006
2022-08-05T15:03:11.764Z,1006
2022-08-05T15:06:28.060Z,1006
2022-08-05T15:09:09.243Z,1006
2022-08-05T15:12:11.416Z,1006
2022-08-05T15:15:13.677Z,1006
2022-08-05T15:18:10.653Z,1006
2022-08-05T15:21:13.902Z,1006
2022-08-05T15:24:04.973Z,1006
2022-08-05T15:27:08.890Z,1006
2022-08-05T15:30:05.239Z,1006
2022-08-05T15:33:05.960Z,1006
2022-08-05T15:36:24.351Z,1006
2022-08-05T15:43:01.521Z,1006
2022-08-05T15:45:06.130Z,1006
2022-08-05T15:48:05.492Z,1006
2022-08-05T15:51:10.351Z,1006
2022-08-05T15:54:10.350Z,1006
2022-08-05T15:57:09.434Z,1006
2022-08-05T16:00:06.988Z,1006
2022-08-05T16:03:07.584Z,1006
2022-08-05T16:06:06.830Z,1006
2022-08-05T16:09:06.195Z,1006
2022-08-05T16:12:05.043Z,1006
2022-08-05T16:15:05.054Z,1006
2022-08-05T16:18:11.425Z,1006
2022-08-05T16:21:09.248Z,1006
2022-08-05T16:24:39.658Z,1006
2022-08-05T16:27:07.267Z,1006
2022-08-05T16:30:05.670Z,1006
2022-08-05T16:33:05.313Z,1006
2022-08-05T16:36:06.972Z,1006
2022-08-05T16:39:06.778Z,1007
2022-08-05T16:42:30.274Z,1007
2022-08-05T16:48:07.537Z,1007
2022-08-05T16:51:11.222Z,1007
2022-08-05T16:54:32.827Z,1007
2022-08-05T16:57:14.925Z,1007
2022-08-05T17:00:19.831Z,1007
2022-08-05T17:03:09.366Z,1007
2022-08-05T17:06:05.004Z,1007
2022-08-05T17:09:06.227Z,1007
2022-08-05T17:12:05.079Z,1007
2022-08-05T17:15:05.075Z,1007
2022-08-05T17:18:05.117Z,1007
2022-08-05T17:21:06.643Z,1007
2022-08-05T17:24:46.349Z,1006
2022-08-05T17:27:04.935Z,1006
2022-08-05T17:30:18.073Z,1007
2022-08-05T17:33:05.060Z,1007
2022-08-05T17:36:42.930Z,1007
2022-08-05T17:39:07.404Z,1007
2022-08-05T17:42:34.759Z,1007
2022-08-05T17:45:23.204Z,1007
2022-08-05T17:48:04.997Z,1007
2022-08-05T17:51:11.282Z,1007
2022-08-05T17:54:04.877Z,1007
2022-08-05T17:57:14.345Z,1007
2022-08-05T18:00:15.628Z,1007
2022-08-05T18:03:05.672Z,1007
2022-08-05T18:06:11.643Z,1007
2022-08-05T18:09:16.560Z,1007
2022-08-05T18:12:06.241Z,1007
2022-08-05T18:15:06.880Z,1007
2022-08-05T18:18:15.349Z,1007
2022-08-05T18:21:19.782Z,1007
2022-08-05T18:24:05.040Z,1007
2022-08-05T18:27:05.697Z,1007
2022-08-05T18:30:06.223Z,1007
2022-08-05T18:33:05.812Z,1007
2022-08-05T18:36:28.116Z,1007
2022-08-05T18:39:09.899Z,1007
2022-08-05T18:42:15.938Z,1007
2022-08-05T18:45:07.311Z,1007
2022-08-05T18:48:06.418Z,1007
2022-08-05T18:54:04.973Z,1007
2022-08-05T18:57:05.876Z,1007
2022-08-05T19:00:27.325Z,1007
2022-08-05T19:03:09.086Z,1007
2022-08-05T19:06:44.799Z,1007
2022-08-05T19:09:06.217Z,1007
2022-08-05T19:12:07.813Z,1007
2022-08-05T19:15:45.128Z,1008
2022-08-05T19:18:25.444Z,1008
2022-08-05T19:21:08.858Z,1008
2022-08-05T19:24:16.645Z,1008
2022-08-05T19:27:09.272Z,1008
2022-08-05T19:30:07.143Z,1008
2022-08-05T19:33:35.010Z,1008
2022-08-05T19:36:08.920Z,1008
2022-08-05T19:39:08.224Z,1008
2022-08-05T19:42:17.519Z,1008
2022-08-05T19:45:07.987Z,1008
2022-08-05T19:48:05.350Z,1008
2022-08-05T19:51:05.551Z,1008
2022-08-05T19:54:30.871Z,1008
2022-08-05T19:57:12.062Z,1008
2022-08-05T20:00:11.503Z,1008
2022-08-05T20:03:11.422Z,1008
2022-08-05T20:06:32.923Z,1008
2022-08-05T20:09:19.411Z,1009
2022-08-05T20:12:09.427Z,1009
2022-08-05T20:15:04.962Z,1009
2022-08-05T20:18:09.939Z,1009
2022-08-05T20:21:06.989Z,1009
2022-08-05T20:24:05.208Z,1009
2022-08-05T20:27:13.378Z,1009
2022-08-05T20:30:06.658Z,1009
2022-08-05T20:33:04.943Z,1009
2022-08-05T20:36:05.537Z,1009
2022-08-05T20:39:05.599Z,1009
2022-08-05T20:42:05.018Z,1009
2022-08-05T20:45:07.448Z,1009
2022-08-05T20:48:05.345Z,1009
2022-08-05T20:51:14.012Z,1009
2022-08-05T20:54:06.627Z,1009
2022-08-05T20:57:14.207Z,1009
2022-08-05T21:00:56.515Z,1009
2022-08-05T21:03:08.385Z,1009
2022-08-05T21:06:05.314Z,1009
2022-08-05T21:09:04.937Z,1009
2022-08-05T21:12:19.361Z,1010
2022-08-05T21:15:05.734Z,1010
2022-08-05T21:18:06.100Z,1010
2022-08-05T21:21:04.920Z,1010
2022-08-05T21:24:09.431Z,1010
2022-08-05T21:27:05.323Z,1010
2022-08-05T21:30:06.717Z,1010
2022-08-05T21:33:24.569Z,1010
2022-08-05T21:36:05.614Z,1010
2022-08-05T21:39:05.303Z,1010
2022-08-05T21:42:06.777Z,1010
2022-08-05T21:45:06.030Z,1010
2022-08-05T21:48:10.205Z,1010
2022-08-05T21:52:16.803Z,1010
2022-08-05T21:54:11.546Z,1010
2022-08-05T21:57:42.556Z,1010
2022-08-05T22:00:16.234Z,1010
2022-08-05T22:03:05.874Z,1010
2022-08-05T22:06:08.180Z,1010
2022-08-05T22:09:20.944Z,1010
2022-08-05T22:12:12.919Z,1010
2022-08-05T22:15:05.099Z,1010
2022-08-05T22:18:04.966Z,1010
2022-08-05T22:21:21.767Z,1010
2022-08-05T22:24:51.987Z,1010
2022-08-05T22:27:16.572Z,1010
2022-08-05T22:30:06.377Z,1010
2022-08-05T22:33:15.377Z,1010
2022-08-05T22:36:08.157Z,1010
2022-08-05T22:39:15.019Z,1010
2022-08-05T22:42:28.810Z,1010
2022-08-05T22:45:05.117Z,1010
2022-08-05T22:48:05.311Z,1010
2022-08-05T22:51:29.957Z,1010
2022-08-05T22:54:06.019Z,1010
2022-08-05T22:57:05.823Z,1010
2022-08-05T23:00:07.784Z,1010
2022-08-05T23:03:08.871Z,1011
2022-08-05T23:06:08.525Z,1011
2022-08-05T23:12:04.965Z,1011
2022-08-05T23:15:11.853Z,1011
2022-08-05T23:18:18.126Z,1011
2022-08-05T23:21:05.345Z,1011
2022-08-05T23:24:13.722Z,1011
2022-08-05T23:27:05.498Z,1011
2022-08-05T23:30:10.639Z,1011
2022-08-05T23:33:04.902Z,1011
2022-08-05T23:36:04.915Z,1011
2022-08-05T23:39:06.362Z,1011
2022-08-05T23:42:04.952Z,1011
2022-08-05T23:45:05.285Z,1011
2022-08-05T23:48:11.550Z,1011
2022-08-05T23:51:07.060Z,1011
2022-08-05T23:54:06.416Z,1011
2022-08-05T23:57:09.264Z,1011
